This is the latest recevied weather packets stored in our database for station/object IU0KRR-10. If no packets are shown the sender has not sent any weather packets the latest 10 day(s).
| Time | Temp. | Humidity | Pressure | Rain* | Wind** | Luminosity | Snow |
|---|---|---|---|---|---|---|---|
| 1787682449 | 20° C | 95% | 874.1 hPa | - | - | - | - |
| 1787681548 | 20° C | 94% | 874.1 hPa | - | - | - | - |
| 1787680725 | 20.56° C | 89% | 873.8 hPa | - | - | - | - |
| 1787680647 | 20.56° C | 89% | 873.8 hPa | - | - | - | - |
| 1787679747 | 21.11° C | 86% | 873.5 hPa | - | - | - | - |
| 1787678846 | 21.67° C | 82% | 873.5 hPa | - | - | - | - |
| 1787677944 | 21.67° C | 80% | 873.4 hPa | - | - | - | - |
| 1787677044 | 22.22° C | 80% | 873.3 hPa | - | - | - | - |
| 1787676143 | 22.22° C | 79% | 873.3 hPa | - | - | - | - |
| 1787675242 | 22.22° C | 78% | 873.3 hPa | - | - | - | - |
| 1787674342 | 22.22° C | 77% | 873.3 hPa | - | - | - | - |
| 1787673441 | 22.22° C | 76% | 873.3 hPa | - | - | - | - |
| 1787672540 | 22.22° C | 73% | 873.3 hPa | - | - | - | - |
| 1787671708 | 22.22° C | 68% | 873.3 hPa | - | - | - | - |
| 1787671639 | 22.22° C | 68% | 873.3 hPa | - | - | - | - |
| 1787670739 | 22.22° C | 72% | 873.4 hPa | - | - | - | - |
| 1787669837 | 22.22° C | 74% | 873.4 hPa | - | - | - | - |
| 1787668936 | 22.78° C | 68% | 873.3 hPa | - | - | - | - |
| 1787668035 | 22.78° C | 67% | 873.3 hPa | - | - | - | - |
| 1787667134 | 22.78° C | 72% | 873.2 hPa | - | - | - | - |
| 1787666234 | 22.22° C | 70% | 873 hPa | - | - | - | - |
| 1787665334 | 22.22° C | 72% | 872.7 hPa | - | - | - | - |
| 1787664433 | 22.22° C | 71% | 872.6 hPa | - | - | - | - |
| 1787663531 | 21.67° C | 76% | 872.5 hPa | - | - | - | - |
| 1787662630 | 21.67° C | 80% | 872.6 hPa | - | - | - | - |
* Rain since midnight (hover to see other rain measurements)
** Current wind speed in m/s (hover to see current wind gust speed)